Fehn Heaven — V2EI8 — position and weather

sailwx.info

Track history (hours):
 
Tides and Currents Weather Stations Pressure Air Temp Water Temp Dewpoint Dewpoint Depression Visibility Wind Speed Wind Dir Waves Ship Positions

Fehn Heaven

Last reported at 2018-Jan-10 17:33 UTC. Time now 2018-Jan-18 06:10 UTC.
Position N 36°32' W 008°50'.

Length 89 m; draft 5.7 m.

Type: Ship. MMSI: 305443000.

Date/timePositionNaut miles runAvg speedWind from/ knotsBaromVisibWave heightAir tempDewpointWater temp
2018-Jan-10 17:33N 36°32' W 008°50'  
2018-Jan-06 13:46N 49°48' W 003°26'310.7
2018-Jan-06 13:29N 49°49' W 003°22'810.2
2018-Jan-06 12:41N 49°53' W 003°11'2 9.6
2018-Jan-06 12:27N 49°54' W 003°08'4 9.1
2018-Jan-06 12:00N 49°56' W 003°02'4 8.5
2018-Jan-06 11:29N 49°58' W 002°56'4 7.9
2018-Jan-06 10:56N 49°59' W 002°50'4 7.5
2018-Jan-06 10:26N 50°01' W 002°44'3 7.3
2018-Jan-06 10:00N 50°02' W 002°39'4 7.3
2018-Jan-06 09:29N 50°03' W 002°34'5 7.7
2018-Jan-06 08:47N 50°04' W 002°26'2 8.1
2018-Jan-06 08:30N 50°05' W 002°23'4 8.7
2018-Jan-06 07:59N 50°07' W 002°16'7611.3
2018-Jan-06 01:19N 50°28' W 000°22'3 8.3
2018-Jan-06 01:00N 50°29' W 000°19'4 7.7
2018-Jan-06 00:30N 50°30' W 000°13'3 7.1
2018-Jan-06 00:00N 50°31' W 000°07'3 6.7
2018-Jan-05 23:30N 50°32' W 000°02'4 7.3
2018-Jan-05 23:00N 50°33' E 000°03'4 7.7
2018-Jan-05 22:30N 50°34' E 000°09'4 8.1
2018-Jan-05 22:00N 50°35' E 000°15'4 8.5
2018-Jan-05 21:30N 50°37' E 000°21'4 9.0
2018-Jan-05 21:00N 50°38' E 000°28'5 9.9
2018-Jan-05 20:30N 50°40' E 000°36'510.2
2018-Jan-05 20:00N 50°42' E 000°42'510.0
2018-Jan-05 19:30N 50°45' E 000°49'5 9.8
2018-Jan-05 19:00N 50°48' E 000°55'5 9.2
2018-Jan-05 18:27N 50°51' E 001°02'7 8.8
2018-Jan-05 17:39N 50°55' E 001°10'1 8.3
2018-Jan-05 17:30N 50°56' E 001°12'4 7.6
2018-Jan-05 17:00N 50°59' E 001°16'3 6.5
2018-Jan-05 16:30N 51°01' E 001°20'3 5.5
2018-Jan-05 16:00N 51°02' E 001°24'2 4.8
2018-Jan-05 15:30N 51°04' E 001°27'2 4.4
2018-Jan-05 15:00N 51°06' E 001°29'2 4.0
2018-Jan-05 14:30N 51°07' E 001°31'2 3.8
2018-Jan-05 14:00N 51°08' E 001°34'2 4.2
2018-Jan-05 13:30N 51°10' E 001°36'2 3.7
2018-Jan-05 13:00N 51°11' E 001°37'3 6.0
2018-Jan-05 12:31N 51°14' E 001°39'4 8.1
2018-Jan-05 12:00N 51°18' E 001°37'5 9.8
2018-Jan-05 11:30N 51°23' E 001°34'5 9.3
2018-Jan-05 11:00N 51°25' E 001°27'1 2.3
2018-Jan-05 10:30N 51°25' E 001°25'0 0.1
2018-Jan-05 10:00N 51°25' E 001°25'0 0.1
2018-Jan-05 09:30N 51°25' E 001°26'0 0.1
2018-Jan-05 09:00N 51°25' E 001°26'0 0.1
2018-Jan-05 08:30N 51°25' E 001°26'0 0.0
2018-Jan-05 08:00N 51°25' E 001°26'0 0.0
2018-Jan-05 07:30N 51°25' E 001°26'0 0.0
2018-Jan-05 07:00N 51°25' E 001°26'0 0.0
2018-Jan-05 06:30N 51°25' E 001°26'0 0.0
2018-Jan-05 06:00N 51°25' E 001°26'0 0.0
2018-Jan-05 05:30N 51°25' E 001°26'0 0.0
2018-Jan-05 05:00N 51°25' E 001°26'0 0.0
2018-Jan-05 04:30N 51°25' E 001°26'0 0.0
2018-Jan-05 04:00N 51°25' E 001°26'0 0.2
2018-Jan-05 03:30N 51°25' E 001°26'0 0.0
2018-Jan-05 03:00N 51°25' E 001°26'0 0.2
2018-Jan-05 02:30N 51°25' E 001°25'0 0.0
2018-Jan-05 02:00N 51°25' E 001°25'0 0.0
2018-Jan-05 01:30N 51°25' E 001°25'0 0.0
2018-Jan-05 01:00N 51°25' E 001°25'0 0.0
2018-Jan-05 00:30N 51°25' E 001°25'0 0.0
2018-Jan-05 00:00N 51°25' E 001°25'0 0.0
2018-Jan-04 23:30N 51°25' E 001°25'0 0.1
2018-Jan-04 23:00N 51°25' E 001°25'0 0.0
2018-Jan-04 22:30N 51°25' E 001°25'0 0.1
2018-Jan-04 22:00N 51°25' E 001°25'0 0.1
2018-Jan-04 21:30N 51°25' E 001°26'0 0.1
2018-Jan-04 21:00N 51°25' E 001°26'0 0.1
2018-Jan-04 20:30N 51°25' E 001°26'0 0.0
2018-Jan-04 20:00N 51°25' E 001°26'2 3.4
2018-Jan-04 19:31N 51°26' E 001°28'510.2
2018-Jan-04 19:00N 51°28' E 001°20'611.7
2018-Jan-04 18:30N 51°29' E 001°11'611.2
2018-Jan-04 18:00N 51°29' E 001°02'611.4
2018-Jan-04 17:30N 51°29' E 000°53'1 0.0
2018-Jan-03 08:49N 51°29' E 000°52'3 8.9
2018-Jan-03 08:29N 51°30' E 000°57'0 0.2
2018-Jan-03 08:00N 51°30' E 000°56'1 0.9
2018-Jan-03 07:27N 51°31' E 000°57'2 3.1
2018-Jan-03 06:57N 51°31' E 000°59'2 2.8
2018-Jan-03 06:20N 51°31' E 000°57'1 3.8
2018-Jan-03 05:58N 51°31' E 000°59'2 5.1
2018-Jan-03 05:30N 51°30' E 000°56'2 3.7
2018-Jan-03 04:59N 51°31' E 000°58'3 5.3
2018-Jan-03 04:30N 51°29' E 000°56'2 4.5
2018-Jan-03 03:59N 51°29' E 000°59'2 5.0
2018-Jan-03 03:31N 51°30' E 001°03'2 3.8
2018-Jan-03 03:00N 51°30' E 001°06'2 4.3
2018-Jan-03 02:30N 51°29' E 001°10'2 4.5
2018-Jan-03 02:00N 51°29' E 001°13'2 4.9
2018-Jan-03 01:30N 51°29' E 001°17'3 5.1
2018-Jan-03 01:01N 51°28' E 001°21'3 6.7
2018-Jan-03 00:30N 51°28' E 001°26'4 8.0
2018-Jan-03 00:00N 51°25' E 001°32'4 8.0
2018-Jan-02 23:30N 51°23' E 001°36'5 9.9
2018-Jan-02 23:00N 51°18' E 001°39'611.8
2018-Jan-02 22:31N 51°12' E 001°39'5 9.4
2018-Jan-02 22:00N 51°08' E 001°41'510.5
2018-Jan-02 21:31N 51°03' E 001°36'510.8
2018-Jan-02 21:01N 50°59' E 001°31'510.2
2018-Jan-02 20:31N 50°54' E 001°28'5 9.1
2018-Jan-02 20:00N 50°50' E 001°26'5 9.3
2018-Jan-02 19:31N 50°45' E 001°24'57 9.4
2018-Jan-02 13:26N 50°20' E 000°03'5 9.8
2018-Jan-02 12:57N 50°19' W 000°04'5 9.8
2018-Jan-02 12:25N 50°18' W 000°12'410.0
2018-Jan-02 12:01N 50°17' W 000°18'910.6
2018-Jan-02 11:08N 50°14' W 000°32'911.7
2018-Jan-02 10:22N 50°11' W 000°46'512.7
2018-Jan-02 09:56N 50°10' W 000°54'613.4
2018-Jan-02 09:30N 50°08' W 001°03'1514.2
2018-Jan-02 08:28N 50°04' W 001°25'3114.9
2018-Jan-02 06:25N 49°57' W 002°11'1313.4
2018-Jan-02 05:28N 49°54' W 002°30'2911.7
2018-Jan-02 02:57N 49°50' W 003°15'710.8
2018-Jan-02 02:18N 49°51' W 003°26'1210.1
2018-Jan-02 01:09N 49°51' W 003°44'1 9.9
2018-Jan-02 01:00N 49°51' W 003°46'13 9.8
2018-Jan-01 23:43N 49°52' W 004°06'4 9.8
2018-Jan-01 23:16N 49°52' W 004°13'3 9.8
2018-Jan-01 23:00N 49°52' W 004°17'15 9.9
2018-Jan-01 21:31N 49°53' W 004°40'110.2
2018-Jan-01 21:27N 49°53' W 004°40'1410.4
2018-Jan-01 20:08N 49°54' W 005°02'110.7
2018-Jan-01 20:00N 49°54' W 005°04'611.1
2018-Jan-01 19:30N 49°54' W 005°13'611.3
2018-Jan-01 19:00N 49°55' W 005°21'611.6
2018-Jan-01 18:30N 49°55' W 005°30'38 4.2
2018-Jan-01 09:30N 50°33' W 005°38'7 7.5
2018-Jan-01 08:30N 50°38' W 005°29'4 7.7
2018-Jan-01 08:00N 50°40' W 005°25'4 7.2
2018-Jan-01 07:31N 50°42' W 005°20'3 5.3
2018-Jan-01 07:00N 50°44' W 005°17'5 4.7
2018-Jan-01 06:00N 50°47' W 005°11'2 4.4
2018-Jan-01 05:30N 50°48' W 005°08'2 3.9
2018-Jan-01 05:01N 50°50' W 005°06'3 3.0
2018-Jan-01 04:00N 50°51' W 005°02'1 2.1
2018-Jan-01 03:30N 50°51' W 004°60'1 2.0
2018-Jan-01 03:00N 50°52' W 004°58'1 1.4
2018-Jan-01 02:30N 50°52' W 004°57'1 1.4
2018-Jan-01 02:00N 50°52' W 004°56'0 0.9
2018-Jan-01 01:30N 50°52' W 004°56'2 1.5
2018-Jan-01 00:30N 50°53' W 004°53'8 2.3
2017-Dec-31 21:00N 50°58' W 004°43'2 3.2
2017-Dec-31 20:30N 50°59' W 004°41'2 3.7
2017-Dec-31 20:00N 50°60' W 004°39'2 4.0
2017-Dec-31 19:31N 51°01' W 004°37'2 4.7
2017-Dec-31 19:00N 51°03' W 004°34'2 4.5
2017-Dec-31 18:30N 51°04' W 004°31'3 5.3
2017-Dec-31 18:00N 51°06' W 004°27'  
Track history (hours):
 
Tides and Currents Weather Stations Pressure Air Temp Water Temp Dewpoint Dewpoint Depression Visibility Wind Speed Wind Dir Waves Ship Positions

Fehn Heaven

Last reported at 2018-Jan-10 17:33 UTC. Time now 2018-Jan-18 06:10 UTC.
Position N 36°32' W 008°50'.

Length 89 m; draft 5.7 m.

Type: Ship. MMSI: 305443000.

Date/timePositionNaut miles runAvg speedWind from/ knotsBaromVisibWave heightAir tempDewpointWater temp
2018-Jan-10 17:33N 36°32' W 008°50'  
2018-Jan-06 13:46N 49°48' W 003°26'310.7
2018-Jan-06 13:29N 49°49' W 003°22'810.2
2018-Jan-06 12:41N 49°53' W 003°11'2 9.6
2018-Jan-06 12:27N 49°54' W 003°08'4 9.1
2018-Jan-06 12:00N 49°56' W 003°02'4 8.5
2018-Jan-06 11:29N 49°58' W 002°56'4 7.9
2018-Jan-06 10:56N 49°59' W 002°50'4 7.5
2018-Jan-06 10:26N 50°01' W 002°44'3 7.3
2018-Jan-06 10:00N 50°02' W 002°39'4 7.3
2018-Jan-06 09:29N 50°03' W 002°34'5 7.7
2018-Jan-06 08:47N 50°04' W 002°26'2 8.1
2018-Jan-06 08:30N 50°05' W 002°23'4 8.7
2018-Jan-06 07:59N 50°07' W 002°16'7611.3
2018-Jan-06 01:19N 50°28' W 000°22'3 8.3
2018-Jan-06 01:00N 50°29' W 000°19'4 7.7
2018-Jan-06 00:30N 50°30' W 000°13'3 7.1
2018-Jan-06 00:00N 50°31' W 000°07'3 6.7
2018-Jan-05 23:30N 50°32' W 000°02'4 7.3
2018-Jan-05 23:00N 50°33' E 000°03'4 7.7
2018-Jan-05 22:30N 50°34' E 000°09'4 8.1
2018-Jan-05 22:00N 50°35' E 000°15'4 8.5
2018-Jan-05 21:30N 50°37' E 000°21'4 9.0
2018-Jan-05 21:00N 50°38' E 000°28'5 9.9
2018-Jan-05 20:30N 50°40' E 000°36'510.2
2018-Jan-05 20:00N 50°42' E 000°42'510.0
2018-Jan-05 19:30N 50°45' E 000°49'5 9.8
2018-Jan-05 19:00N 50°48' E 000°55'5 9.2
2018-Jan-05 18:27N 50°51' E 001°02'7 8.8
2018-Jan-05 17:39N 50°55' E 001°10'1 8.3
2018-Jan-05 17:30N 50°56' E 001°12'4 7.6
2018-Jan-05 17:00N 50°59' E 001°16'3 6.5
2018-Jan-05 16:30N 51°01' E 001°20'3 5.5
2018-Jan-05 16:00N 51°02' E 001°24'2 4.8
2018-Jan-05 15:30N 51°04' E 001°27'2 4.4
2018-Jan-05 15:00N 51°06' E 001°29'2 4.0
2018-Jan-05 14:30N 51°07' E 001°31'2 3.8
2018-Jan-05 14:00N 51°08' E 001°34'2 4.2
2018-Jan-05 13:30N 51°10' E 001°36'2 3.7
2018-Jan-05 13:00N 51°11' E 001°37'3 6.0
2018-Jan-05 12:31N 51°14' E 001°39'4 8.1
2018-Jan-05 12:00N 51°18' E 001°37'5 9.8
2018-Jan-05 11:30N 51°23' E 001°34'5 9.3
2018-Jan-05 11:00N 51°25' E 001°27'1 2.3
2018-Jan-05 10:30N 51°25' E 001°25'0 0.1
2018-Jan-05 10:00N 51°25' E 001°25'0 0.1
2018-Jan-05 09:30N 51°25' E 001°26'0 0.1
2018-Jan-05 09:00N 51°25' E 001°26'0 0.1
2018-Jan-05 08:30N 51°25' E 001°26'0 0.0
2018-Jan-05 08:00N 51°25' E 001°26'0 0.0
2018-Jan-05 07:30N 51°25' E 001°26'0 0.0
2018-Jan-05 07:00N 51°25' E 001°26'0 0.0
2018-Jan-05 06:30N 51°25' E 001°26'0 0.0
2018-Jan-05 06:00N 51°25' E 001°26'0 0.0
2018-Jan-05 05:30N 51°25' E 001°26'0 0.0
2018-Jan-05 05:00N 51°25' E 001°26'0 0.0
2018-Jan-05 04:30N 51°25' E 001°26'0 0.0
2018-Jan-05 04:00N 51°25' E 001°26'0 0.2
2018-Jan-05 03:30N 51°25' E 001°26'0 0.0
2018-Jan-05 03:00N 51°25' E 001°26'0 0.2
2018-Jan-05 02:30N 51°25' E 001°25'0 0.0
2018-Jan-05 02:00N 51°25' E 001°25'0 0.0
2018-Jan-05 01:30N 51°25' E 001°25'0 0.0
2018-Jan-05 01:00N 51°25' E 001°25'0 0.0
2018-Jan-05 00:30N 51°25' E 001°25'0 0.0
2018-Jan-05 00:00N 51°25' E 001°25'0 0.0
2018-Jan-04 23:30N 51°25' E 001°25'0 0.1
2018-Jan-04 23:00N 51°25' E 001°25'0 0.0
2018-Jan-04 22:30N 51°25' E 001°25'0 0.1
2018-Jan-04 22:00N 51°25' E 001°25'0 0.1
2018-Jan-04 21:30N 51°25' E 001°26'0 0.1
2018-Jan-04 21:00N 51°25' E 001°26'0 0.1
2018-Jan-04 20:30N 51°25' E 001°26'0 0.0
2018-Jan-04 20:00N 51°25' E 001°26'2 3.4
2018-Jan-04 19:31N 51°26' E 001°28'510.2
2018-Jan-04 19:00N 51°28' E 001°20'611.7
2018-Jan-04 18:30N 51°29' E 001°11'611.2
2018-Jan-04 18:00N 51°29' E 001°02'611.4
2018-Jan-04 17:30N 51°29' E 000°53'1 0.0
2018-Jan-03 08:49N 51°29' E 000°52'3 8.9
2018-Jan-03 08:29N 51°30' E 000°57'0 0.2
2018-Jan-03 08:00N 51°30' E 000°56'1 0.9
2018-Jan-03 07:27N 51°31' E 000°57'2 3.1
2018-Jan-03 06:57N 51°31' E 000°59'2 2.8
2018-Jan-03 06:20N 51°31' E 000°57'1 3.8
2018-Jan-03 05:58N 51°31' E 000°59'2 5.1
2018-Jan-03 05:30N 51°30' E 000°56'2 3.7
2018-Jan-03 04:59N 51°31' E 000°58'3 5.3
2018-Jan-03 04:30N 51°29' E 000°56'2 4.5
2018-Jan-03 03:59N 51°29' E 000°59'2 5.0
2018-Jan-03 03:31N 51°30' E 001°03'2 3.8
2018-Jan-03 03:00N 51°30' E 001°06'2 4.3
2018-Jan-03 02:30N 51°29' E 001°10'2 4.5
2018-Jan-03 02:00N 51°29' E 001°13'2 4.9
2018-Jan-03 01:30N 51°29' E 001°17'3 5.1
2018-Jan-03 01:01N 51°28' E 001°21'3 6.7
2018-Jan-03 00:30N 51°28' E 001°26'4 8.0
2018-Jan-03 00:00N 51°25' E 001°32'4 8.0
2018-Jan-02 23:30N 51°23' E 001°36'5 9.9
2018-Jan-02 23:00N 51°18' E 001°39'611.8
2018-Jan-02 22:31N 51°12' E 001°39'5 9.4
2018-Jan-02 22:00N 51°08' E 001°41'510.5
2018-Jan-02 21:31N 51°03' E 001°36'510.8
2018-Jan-02 21:01N 50°59' E 001°31'510.2
2018-Jan-02 20:31N 50°54' E 001°28'5 9.1
2018-Jan-02 20:00N 50°50' E 001°26'5 9.3
2018-Jan-02 19:31N 50°45' E 001°24'57 9.4
2018-Jan-02 13:26N 50°20' E 000°03'5 9.8
2018-Jan-02 12:57N 50°19' W 000°04'5 9.8
2018-Jan-02 12:25N 50°18' W 000°12'410.0
2018-Jan-02 12:01N 50°17' W 000°18'910.6
2018-Jan-02 11:08N 50°14' W 000°32'911.7
2018-Jan-02 10:22N 50°11' W 000°46'512.7
2018-Jan-02 09:56N 50°10' W 000°54'613.4
2018-Jan-02 09:30N 50°08' W 001°03'1514.2
2018-Jan-02 08:28N 50°04' W 001°25'3114.9
2018-Jan-02 06:25N 49°57' W 002°11'1313.4
2018-Jan-02 05:28N 49°54' W 002°30'2911.7
2018-Jan-02 02:57N 49°50' W 003°15'710.8
2018-Jan-02 02:18N 49°51' W 003°26'1210.1
2018-Jan-02 01:09N 49°51' W 003°44'1 9.9
2018-Jan-02 01:00N 49°51' W 003°46'13 9.8
2018-Jan-01 23:43N 49°52' W 004°06'4 9.8
2018-Jan-01 23:16N 49°52' W 004°13'3 9.8
2018-Jan-01 23:00N 49°52' W 004°17'15 9.9
2018-Jan-01 21:31N 49°53' W 004°40'110.2
2018-Jan-01 21:27N 49°53' W 004°40'1410.4
2018-Jan-01 20:08N 49°54' W 005°02'110.7
2018-Jan-01 20:00N 49°54' W 005°04'611.1
2018-Jan-01 19:30N 49°54' W 005°13'611.3
2018-Jan-01 19:00N 49°55' W 005°21'611.6
2018-Jan-01 18:30N 49°55' W 005°30'38 4.2
2018-Jan-01 09:30N 50°33' W 005°38'7 7.5
2018-Jan-01 08:30N 50°38' W 005°29'4 7.7
2018-Jan-01 08:00N 50°40' W 005°25'4 7.2
2018-Jan-01 07:31N 50°42' W 005°20'3 5.3
2018-Jan-01 07:00N 50°44' W 005°17'5 4.7
2018-Jan-01 06:00N 50°47' W 005°11'2 4.4
2018-Jan-01 05:30N 50°48' W 005°08'2 3.9
2018-Jan-01 05:01N 50°50' W 005°06'3 3.0
2018-Jan-01 04:00N 50°51' W 005°02'1 2.1
2018-Jan-01 03:30N 50°51' W 004°60'1 2.0
2018-Jan-01 03:00N 50°52' W 004°58'1 1.4
2018-Jan-01 02:30N 50°52' W 004°57'1 1.4
2018-Jan-01 02:00N 50°52' W 004°56'0 0.9
2018-Jan-01 01:30N 50°52' W 004°56'2 1.5
2018-Jan-01 00:30N 50°53' W 004°53'8 2.3
2017-Dec-31 21:00N 50°58' W 004°43'2 3.2
2017-Dec-31 20:30N 50°59' W 004°41'2 3.7
2017-Dec-31 20:00N 50°60' W 004°39'2 4.0
2017-Dec-31 19:31N 51°01' W 004°37'2 4.7
2017-Dec-31 19:00N 51°03' W 004°34'2 4.5
2017-Dec-31 18:30N 51°04' W 004°31'3 5.3
2017-Dec-31 18:00N 51°06' W 004°27'  

Dump ship's entire track history